createdAt,value
2018-08-13T00:01:26.763Z,20.92
2018-08-13T00:03:57.250Z,20.91
2018-08-13T00:06:26.647Z,20.89
2018-08-13T00:08:57.284Z,20.89
2018-08-13T00:11:26.953Z,20.88
2018-08-13T00:13:58.390Z,20.88
2018-08-13T00:16:27.451Z,20.84
2018-08-13T00:18:56.339Z,20.83
2018-08-13T00:21:25.733Z,20.82
2018-08-13T00:23:54.688Z,20.75
2018-08-13T00:26:25.032Z,20.70
2018-08-13T00:28:54.289Z,20.60
2018-08-13T00:31:24.385Z,20.55
2018-08-13T00:33:53.974Z,20.58
2018-08-13T00:36:23.959Z,20.63
2018-08-13T00:38:52.747Z,20.59
2018-08-13T00:41:23.927Z,20.57
2018-08-13T00:43:53.822Z,20.60
2018-08-13T00:46:23.306Z,20.59
2018-08-13T00:48:54.877Z,20.61
2018-08-13T00:51:25.027Z,20.65
2018-08-13T00:53:56.412Z,20.61
2018-08-13T00:56:25.262Z,20.59
2018-08-13T00:58:54.467Z,20.59
2018-08-13T01:01:23.323Z,20.58
2018-08-13T01:03:52.591Z,20.53
2018-08-13T01:06:22.717Z,20.54
2018-08-13T01:08:51.826Z,20.52
2018-08-13T01:11:20.678Z,20.54
2018-08-13T01:13:49.459Z,20.52
2018-08-13T01:16:18.146Z,20.51
2018-08-13T01:18:49.390Z,20.49
2018-08-13T01:21:18.280Z,20.48
2018-08-13T01:23:47.075Z,20.47
2018-08-13T01:26:16.112Z,20.44
2018-08-13T01:28:45.392Z,20.40
2018-08-13T01:31:18.461Z,20.36
2018-08-13T01:33:47.268Z,20.32
2018-08-13T01:36:16.365Z,20.30
2018-08-13T01:38:45.850Z,20.29
2018-08-13T01:41:15.229Z,20.28
2018-08-13T01:43:44.553Z,20.26
2018-08-13T01:46:14.125Z,20.23
2018-08-13T01:48:44.068Z,20.22
2018-08-13T01:51:13.742Z,20.19
2018-08-13T01:53:42.830Z,20.19
2018-08-13T01:56:11.857Z,20.14
2018-08-13T01:58:42.126Z,20.00
2018-08-13T02:01:12.492Z,19.88
2018-08-13T02:03:43.047Z,19.73
2018-08-13T02:06:12.544Z,19.72
2018-08-13T02:08:41.772Z,19.71
2018-08-13T02:11:12.278Z,19.66
2018-08-13T02:13:42.429Z,19.69
2018-08-13T02:16:12.141Z,19.69
2018-08-13T02:18:42.022Z,19.72
2018-08-13T02:21:11.827Z,19.71
2018-08-13T02:23:41.981Z,19.74
2018-08-13T02:26:12.221Z,19.71
2018-08-13T02:28:41.519Z,19.64
2018-08-13T02:31:10.963Z,19.63
2018-08-13T02:33:40.153Z,19.64
2018-08-13T02:36:08.882Z,19.65
2018-08-13T02:38:37.753Z,19.65
2018-08-13T02:41:08.043Z,19.62
2018-08-13T02:43:36.905Z,19.57
2018-08-13T02:46:06.638Z,19.54
2018-08-13T02:48:35.661Z,19.49
2018-08-13T02:51:06.447Z,19.50
2018-08-13T02:53:35.225Z,19.49
2018-08-13T02:56:04.227Z,19.46
2018-08-13T02:58:33.904Z,19.39
2018-08-13T03:01:04.215Z,19.41
2018-08-13T03:03:33.458Z,19.44
2018-08-13T03:06:02.222Z,19.43
2018-08-13T03:08:31.627Z,19.41
2018-08-13T03:11:01.870Z,19.39
2018-08-13T03:13:30.653Z,19.34
2018-08-13T03:16:00.592Z,19.32
2018-08-13T03:18:30.200Z,19.32
2018-08-13T03:20:59.569Z,19.25
2018-08-13T03:23:29.242Z,19.19
2018-08-13T03:25:59.436Z,19.20
2018-08-13T03:28:28.771Z,19.21
2018-08-13T03:30:58.435Z,19.22
2018-08-13T03:33:28.715Z,19.19
2018-08-13T03:35:58.315Z,19.19
2018-08-13T03:38:28.513Z,19.19
2018-08-13T03:40:58.721Z,19.13
2018-08-13T03:43:28.764Z,19.17
2018-08-13T03:45:58.602Z,19.18
2018-08-13T03:48:28.001Z,19.18
2018-08-13T03:50:58.712Z,19.19
2018-08-13T03:53:29.220Z,19.19
2018-08-13T03:55:58.744Z,19.12
2018-08-13T03:58:27.483Z,19.12
2018-08-13T04:00:56.863Z,19.11
2018-08-13T04:03:26.736Z,19.04
2018-08-13T04:05:56.233Z,18.92
2018-08-13T04:08:25.308Z,18.85
2018-08-13T04:10:55.873Z,18.87
2018-08-13T04:13:25.918Z,18.86
2018-08-13T04:15:55.840Z,18.85
2018-08-13T04:18:25.784Z,18.76
2018-08-13T04:20:56.411Z,18.72
2018-08-13T04:23:25.783Z,18.80
2018-08-13T04:25:54.675Z,18.86
2018-08-13T04:28:25.128Z,18.91
2018-08-13T04:30:55.120Z,18.95
2018-08-13T04:33:24.797Z,19.00
2018-08-13T04:35:54.779Z,19.05
2018-08-13T04:38:24.045Z,19.04
2018-08-13T04:40:52.696Z,19.06
2018-08-13T04:43:22.023Z,19.07
2018-08-13T04:45:52.041Z,19.07
2018-08-13T04:48:21.292Z,19.13
2018-08-13T04:50:50.100Z,19.14
2018-08-13T04:53:18.873Z,19.16
2018-08-13T04:55:47.907Z,19.17
2018-08-13T04:58:17.155Z,19.17
2018-08-13T05:00:45.944Z,19.10
2018-08-13T05:03:16.234Z,19.08
2018-08-13T05:05:46.623Z,19.10
2018-08-13T05:08:15.383Z,19.13
2018-08-13T05:10:45.359Z,19.09
2018-08-13T05:13:14.482Z,19.10
2018-08-13T05:15:44.264Z,19.14
2018-08-13T05:18:13.873Z,19.14
2018-08-13T05:20:43.901Z,19.10
2018-08-13T05:23:12.968Z,19.16
2018-08-13T05:25:42.527Z,19.10
2018-08-13T05:28:12.760Z,19.16
2018-08-13T05:30:41.681Z,19.21
2018-08-13T05:33:11.325Z,19.24
2018-08-13T05:35:41.738Z,19.28
2018-08-13T05:38:11.639Z,19.34
2018-08-13T05:40:41.312Z,19.35
2018-08-13T05:43:10.074Z,19.34
2018-08-13T05:45:39.975Z,19.40
2018-08-13T05:48:08.945Z,19.46
2018-08-13T05:50:39.463Z,19.54
2018-08-13T05:53:08.217Z,19.60
2018-08-13T05:55:38.939Z,19.70
2018-08-13T05:58:08.326Z,19.80
2018-08-13T06:00:38.105Z,19.81
2018-08-13T06:03:08.218Z,19.85
2018-08-13T06:05:38.548Z,19.92
2018-08-13T06:08:08.326Z,19.97
2018-08-13T06:10:39.394Z,20.00
2018-08-13T06:13:10.029Z,20.11
2018-08-13T06:15:41.668Z,20.24
2018-08-13T06:18:11.082Z,20.38
2018-08-13T06:20:40.616Z,20.51
2018-08-13T06:23:10.675Z,20.73
2018-08-13T06:25:40.524Z,20.87
2018-08-13T06:28:10.019Z,21.07
2018-08-13T06:30:39.869Z,21.34
2018-08-13T06:33:08.643Z,21.53
2018-08-13T06:35:38.987Z,21.74
2018-08-13T06:38:08.378Z,22.04
2018-08-13T06:40:37.679Z,22.37
2018-08-13T06:43:07.139Z,22.67
2018-08-13T06:45:37.385Z,22.91
2018-08-13T06:48:07.490Z,23.09
2018-08-13T06:50:36.801Z,23.20
2018-08-13T06:53:07.156Z,23.35
2018-08-13T06:55:37.167Z,23.21
2018-08-13T06:58:07.751Z,23.21
2018-08-13T07:00:36.561Z,23.26
2018-08-13T07:03:06.505Z,23.21
2018-08-13T07:05:38.041Z,23.06
2018-08-13T07:08:07.590Z,23.14
2018-08-13T07:10:38.043Z,23.11
2018-08-13T07:13:08.252Z,23.28
2018-08-13T07:15:38.507Z,23.25
2018-08-13T07:18:08.201Z,23.35
2018-08-13T07:20:37.915Z,23.47
2018-08-13T07:23:07.055Z,23.49
2018-08-13T07:25:36.593Z,23.60
2018-08-13T07:28:06.297Z,23.66
2018-08-13T07:30:35.757Z,23.66
2018-08-13T07:33:05.469Z,23.68
2018-08-13T07:35:36.082Z,23.77
2018-08-13T07:38:07.429Z,23.86
2018-08-13T07:40:38.030Z,23.97
2018-08-13T07:43:07.365Z,23.87
2018-08-13T07:45:37.688Z,23.86
2018-08-13T07:48:07.292Z,23.85
2018-08-13T07:50:36.376Z,23.97
2018-08-13T07:53:06.552Z,23.95
2018-08-13T07:55:36.355Z,23.95
2018-08-13T07:58:06.660Z,24.03
2018-08-13T08:00:36.009Z,24.13
2018-08-13T08:03:04.961Z,24.20
2018-08-13T08:05:34.640Z,24.28
2018-08-13T08:08:04.270Z,24.37
2018-08-13T08:10:34.345Z,24.58
2018-08-13T08:13:03.955Z,24.76
2018-08-13T08:15:33.913Z,25.01
2018-08-13T08:18:03.201Z,25.33
2018-08-13T08:20:32.219Z,25.67
2018-08-13T08:23:02.288Z,25.90
2018-08-13T08:25:31.367Z,26.24
2018-08-13T08:28:02.606Z,26.42
2018-08-13T08:30:33.745Z,26.71
2018-08-13T08:33:03.768Z,26.99
2018-08-13T08:35:33.775Z,27.50
2018-08-13T08:38:03.108Z,27.54
2018-08-13T08:40:31.999Z,27.63
2018-08-13T08:43:02.264Z,27.78
2018-08-13T08:45:32.495Z,27.81
2018-08-13T08:48:02.007Z,27.68
2018-08-13T08:50:31.631Z,27.50
2018-08-13T08:53:01.441Z,27.46
2018-08-13T08:55:31.251Z,27.35
2018-08-13T08:58:00.966Z,27.19
2018-08-13T09:00:30.057Z,26.99
2018-08-13T09:03:00.182Z,26.93
2018-08-13T09:05:30.406Z,27.19
2018-08-13T09:08:00.292Z,27.61
2018-08-13T09:10:29.306Z,27.91
2018-08-13T09:12:58.509Z,28.29
2018-08-13T09:15:27.830Z,29.04
2018-08-13T09:18:07.706Z,29.62
2018-08-13T09:20:47.561Z,29.95
2018-08-13T09:23:27.870Z,30.40
2018-08-13T09:26:08.271Z,30.71
2018-08-13T09:28:49.205Z,30.57
2018-08-13T09:31:30.987Z,30.81
2018-08-13T09:34:14.418Z,31.04
2018-08-13T09:36:43.498Z,31.36
2018-08-13T09:39:13.536Z,31.58
2018-08-13T09:41:42.756Z,31.66
2018-08-13T09:44:12.342Z,31.74
2018-08-13T09:46:41.844Z,31.60
2018-08-13T09:49:11.264Z,31.34
2018-08-13T09:51:40.633Z,31.22
2018-08-13T09:54:09.555Z,31.17
2018-08-13T09:56:38.947Z,30.99
2018-08-13T09:59:09.152Z,30.81
2018-08-13T10:01:38.501Z,30.61
2018-08-13T10:04:07.479Z,30.34
2018-08-13T10:06:38.253Z,29.90
2018-08-13T10:09:08.229Z,29.46
2018-08-13T10:11:37.529Z,29.44
2018-08-13T10:14:06.977Z,29.56
2018-08-13T10:16:36.491Z,29.59
2018-08-13T10:19:07.210Z,29.81
2018-08-13T10:21:36.850Z,29.78
2018-08-13T10:24:06.705Z,29.75
2018-08-13T10:26:36.388Z,30.17
2018-08-13T10:29:06.458Z,30.09
2018-08-13T10:31:36.061Z,29.94
2018-08-13T10:34:05.395Z,29.82
2018-08-13T10:40:10.209Z,30.09
2018-08-13T10:42:40.735Z,30.54
2018-08-13T10:45:10.509Z,30.65
2018-08-13T10:47:39.320Z,30.56
2018-08-13T10:50:09.815Z,30.69
2018-08-13T10:52:38.825Z,30.43
2018-08-13T10:55:08.355Z,30.23
2018-08-13T10:57:37.321Z,30.32
2018-08-13T11:00:08.479Z,30.27
2018-08-13T11:02:38.846Z,30.15
2018-08-13T11:05:10.513Z,30.22
2018-08-13T11:07:40.225Z,30.25
2018-08-13T11:10:12.145Z,30.22
2018-08-13T11:12:41.072Z,30.08
2018-08-13T11:15:16.363Z,30.17
2018-08-13T11:17:45.841Z,30.26
2018-08-13T11:20:15.159Z,30.30
2018-08-13T11:22:44.586Z,30.21
2018-08-13T11:25:15.063Z,30.26
2018-08-13T11:27:44.537Z,30.54
2018-08-13T11:30:15.590Z,30.61
2018-08-13T11:32:44.726Z,30.72
2018-08-13T11:35:14.828Z,30.76
2018-08-13T11:37:43.795Z,30.94
2018-08-13T11:40:14.640Z,30.94
2018-08-13T11:42:43.878Z,30.99
2018-08-13T11:45:13.208Z,31.23
2018-08-13T11:47:43.797Z,31.71
2018-08-13T11:50:18.022Z,32.70
2018-08-13T11:52:49.510Z,33.82
2018-08-13T11:55:19.683Z,34.68
2018-08-13T11:57:50.390Z,35.28
2018-08-13T12:00:20.497Z,36.37
2018-08-13T12:02:49.948Z,37.87
2018-08-13T12:05:20.972Z,38.34
2018-08-13T12:07:50.623Z,38.05
2018-08-13T12:10:19.768Z,37.39
2018-08-13T12:12:49.550Z,36.62
2018-08-13T12:15:19.594Z,35.96
2018-08-13T12:17:49.048Z,35.39
2018-08-13T12:20:19.811Z,35.17
2018-08-13T12:22:49.585Z,35.65
2018-08-13T12:25:27.222Z,35.90
2018-08-13T12:27:56.720Z,36.61
2018-08-13T12:30:26.164Z,37.10
2018-08-13T12:32:55.600Z,36.65
2018-08-13T12:35:25.131Z,36.60
2018-08-13T12:37:54.365Z,35.54
2018-08-13T12:40:23.977Z,34.93
2018-08-13T12:42:54.571Z,34.81
2018-08-13T12:45:23.881Z,35.67
2018-08-13T12:47:53.253Z,36.70
2018-08-13T12:50:23.017Z,36.62
2018-08-13T12:52:52.689Z,36.72
2018-08-13T12:55:22.711Z,36.55
2018-08-13T12:57:52.384Z,36.17
2018-08-13T13:00:23.150Z,35.47
2018-08-13T13:02:52.865Z,34.56
2018-08-13T13:05:23.160Z,33.72
2018-08-13T13:07:52.890Z,32.95
2018-08-13T13:10:22.565Z,32.27
2018-08-13T13:12:51.392Z,31.79
2018-08-13T13:15:21.825Z,31.65
2018-08-13T13:17:51.263Z,31.42
2018-08-13T13:20:22.619Z,31.41
2018-08-13T13:22:52.697Z,31.60
2018-08-13T13:25:21.956Z,31.98
2018-08-13T13:27:52.704Z,32.07
2018-08-13T13:30:22.120Z,31.94
2018-08-13T13:32:52.756Z,31.79
2018-08-13T13:35:22.371Z,31.51
2018-08-13T13:37:52.723Z,31.28
2018-08-13T13:40:21.627Z,30.99
2018-08-13T13:42:50.657Z,30.77
2018-08-13T13:45:21.838Z,30.67
2018-08-13T13:47:52.899Z,30.55
2018-08-13T13:50:22.704Z,30.41
2018-08-13T13:52:52.137Z,30.39
2018-08-13T13:55:20.871Z,30.39
2018-08-13T13:57:50.717Z,30.34
2018-08-13T14:00:21.590Z,30.30
2018-08-13T14:02:51.850Z,30.28
2018-08-13T14:05:21.192Z,30.28
2018-08-13T14:07:51.654Z,30.34
2018-08-13T14:10:21.779Z,30.32
2018-08-13T14:12:51.236Z,30.30
2018-08-13T14:15:22.339Z,30.19
2018-08-13T14:17:51.727Z,30.08
2018-08-13T14:20:21.501Z,29.98
2018-08-13T14:22:51.165Z,29.85
2018-08-13T14:25:21.090Z,29.79
2018-08-13T14:27:51.296Z,29.72
2018-08-13T14:30:23.607Z,29.69
2018-08-13T14:32:52.440Z,29.67
2018-08-13T14:35:22.423Z,29.64
2018-08-13T14:37:51.672Z,29.63
2018-08-13T14:40:21.220Z,29.58
2018-08-13T14:42:50.195Z,29.54
2018-08-13T14:45:19.574Z,29.50
2018-08-13T14:47:49.934Z,29.45
2018-08-13T14:50:19.532Z,29.39
2018-08-13T14:52:49.699Z,29.36
2018-08-13T14:55:21.711Z,29.21
2018-08-13T14:57:50.750Z,29.09
2018-08-13T15:00:26.603Z,28.93
2018-08-13T15:02:56.879Z,28.81
2018-08-13T15:05:27.362Z,28.80
2018-08-13T15:07:57.014Z,28.85
2018-08-13T15:10:27.151Z,28.85
2018-08-13T15:12:57.961Z,28.76
2018-08-13T15:15:26.735Z,28.61
2018-08-13T15:17:56.406Z,28.57
2018-08-13T15:20:27.512Z,28.48
2018-08-13T15:22:56.986Z,28.39
2018-08-13T15:25:27.233Z,28.29
2018-08-13T15:27:56.150Z,28.06
2018-08-13T15:30:27.684Z,27.93
2018-08-13T15:32:57.749Z,27.79
2018-08-13T15:35:27.022Z,27.64
2018-08-13T15:37:56.538Z,27.56
2018-08-13T15:40:26.426Z,27.41
2018-08-13T15:42:56.720Z,27.32
2018-08-13T15:45:26.364Z,27.28
2018-08-13T15:47:55.913Z,27.30
2018-08-13T15:50:25.342Z,27.23
2018-08-13T15:53:01.275Z,27.13
2018-08-13T15:55:31.043Z,27.09
2018-08-13T15:58:00.876Z,26.90
2018-08-13T16:00:29.919Z,26.85
2018-08-13T16:02:58.608Z,26.78
2018-08-13T16:05:27.410Z,26.66
2018-08-13T16:07:56.166Z,26.56
2018-08-13T16:10:25.043Z,26.54
2018-08-13T16:12:55.651Z,26.49
2018-08-13T16:15:25.073Z,26.45
2018-08-13T16:17:53.975Z,26.43
2018-08-13T16:20:23.976Z,26.25
2018-08-13T16:22:54.178Z,26.21
2018-08-13T16:25:23.492Z,26.18
2018-08-13T16:27:53.286Z,26.11
2018-08-13T16:30:27.943Z,26.07
2018-08-13T16:32:57.800Z,26.08
2018-08-13T16:35:28.178Z,26.02
2018-08-13T16:37:57.549Z,25.94
2018-08-13T16:40:27.311Z,25.88
2018-08-13T16:42:57.044Z,25.77
2018-08-13T16:45:26.343Z,25.73
2018-08-13T16:47:55.963Z,25.67
2018-08-13T16:50:30.888Z,25.59
2018-08-13T16:53:01.485Z,25.58
2018-08-13T16:55:32.194Z,25.56
2018-08-13T16:58:03.747Z,25.46
2018-08-13T17:00:34.398Z,25.35
2018-08-13T17:03:04.457Z,25.29
2018-08-13T17:05:34.513Z,25.18
2018-08-13T17:08:03.499Z,25.15
2018-08-13T17:10:32.248Z,25.09
2018-08-13T17:13:01.195Z,25.07
2018-08-13T17:15:31.578Z,25.05
2018-08-13T17:18:02.013Z,25.06
2018-08-13T17:20:37.354Z,25.15
2018-08-13T17:23:06.665Z,25.24
2018-08-13T17:25:37.047Z,25.31
2018-08-13T17:28:06.559Z,25.38
2018-08-13T17:30:35.940Z,25.51
2018-08-13T17:33:05.091Z,25.56
2018-08-13T17:35:35.437Z,25.57
2018-08-13T17:38:06.345Z,25.61
2018-08-13T17:40:35.444Z,25.58
2018-08-13T17:43:04.833Z,25.55
2018-08-13T17:45:34.655Z,25.49
2018-08-13T17:48:06.499Z,25.46
2018-08-13T17:50:36.947Z,25.44
2018-08-13T17:53:06.856Z,25.41
2018-08-13T17:55:36.173Z,25.39
2018-08-13T17:58:05.409Z,25.36
2018-08-13T18:00:34.322Z,25.36
2018-08-13T18:03:03.331Z,25.31
2018-08-13T18:05:32.630Z,25.28
2018-08-13T18:08:01.639Z,25.19
2018-08-13T18:10:33.424Z,25.09
2018-08-13T18:13:04.155Z,25.01
2018-08-13T18:15:33.963Z,25.00
2018-08-13T18:18:03.543Z,24.96
2018-08-13T18:20:32.606Z,24.96
2018-08-13T18:23:03.910Z,24.85
2018-08-13T18:25:33.101Z,24.81
2018-08-13T18:28:02.840Z,24.73
2018-08-13T18:30:33.215Z,24.67
2018-08-13T18:33:03.064Z,24.61
2018-08-13T18:35:32.444Z,24.60
2018-08-13T18:38:01.318Z,24.48
2018-08-13T18:40:32.782Z,24.41
2018-08-13T18:43:03.816Z,24.34
2018-08-13T18:45:33.711Z,24.26
2018-08-13T18:48:03.293Z,24.18
2018-08-13T18:50:32.640Z,24.15
2018-08-13T18:53:02.381Z,24.20
2018-08-13T18:55:31.652Z,24.09
2018-08-13T18:58:00.990Z,24.08
2018-08-13T19:00:30.921Z,24.01
2018-08-13T19:03:01.668Z,24.00
2018-08-13T19:05:32.122Z,23.94
2018-08-13T19:08:01.570Z,23.87
2018-08-13T19:10:30.286Z,23.88
2018-08-13T19:12:59.090Z,23.89
2018-08-13T19:15:28.967Z,23.83
2018-08-13T19:18:00.715Z,23.81
2018-08-13T19:20:30.734Z,23.80
2018-08-13T19:23:00.762Z,23.79
2018-08-13T19:25:29.979Z,23.77
2018-08-13T19:27:58.604Z,23.78
2018-08-13T19:30:28.172Z,23.75
2018-08-13T19:32:58.433Z,23.70
2018-08-13T19:35:27.811Z,23.68
2018-08-13T19:37:57.784Z,23.64
2018-08-13T19:40:27.269Z,23.56
2018-08-13T19:42:56.329Z,23.57
2018-08-13T19:45:25.666Z,23.54
2018-08-13T19:47:55.029Z,23.53
2018-08-13T19:50:24.156Z,23.49
2018-08-13T19:52:53.195Z,23.46
2018-08-13T19:55:23.682Z,23.50
2018-08-13T19:57:52.460Z,23.43
2018-08-13T20:00:28.248Z,23.46
2018-08-13T20:02:58.172Z,23.34
2018-08-13T20:05:29.504Z,23.30
2018-08-13T20:07:58.542Z,23.30
2018-08-13T20:10:28.575Z,23.20
2018-08-13T20:12:58.797Z,23.22
2018-08-13T20:15:28.916Z,23.21
2018-08-13T20:17:59.170Z,23.10
2018-08-13T20:20:29.281Z,23.09
2018-08-13T20:22:58.567Z,23.07
2018-08-13T20:25:27.412Z,23.06
2018-08-13T20:27:57.235Z,23.03
2018-08-13T20:30:28.067Z,23.02
2018-08-13T20:32:57.954Z,22.95
2018-08-13T20:35:28.678Z,22.92
2018-08-13T20:37:58.340Z,22.86
2018-08-13T20:40:28.089Z,22.85
2018-08-13T20:42:59.311Z,22.89
2018-08-13T20:45:30.125Z,22.84
2018-08-13T20:47:59.504Z,22.81
2018-08-13T20:50:31.745Z,22.79
2018-08-13T20:53:02.390Z,22.77
2018-08-13T20:55:31.225Z,22.74
2018-08-13T20:58:02.188Z,22.69
2018-08-13T21:00:32.521Z,22.64
2018-08-13T21:03:01.821Z,22.62
2018-08-13T21:05:32.583Z,22.58
2018-08-13T21:08:03.120Z,22.60
2018-08-13T21:10:33.249Z,22.63
2018-08-13T21:13:02.975Z,22.58
2018-08-13T21:15:31.869Z,22.52
2018-08-13T21:18:02.438Z,22.41
2018-08-13T21:20:33.203Z,22.43
2018-08-13T21:23:03.686Z,22.42
2018-08-13T21:25:33.866Z,22.40
2018-08-13T21:28:04.653Z,22.33
2018-08-13T21:30:34.531Z,22.27
2018-08-13T21:33:03.423Z,22.26
2018-08-13T21:35:33.644Z,22.22
2018-08-13T21:38:04.292Z,22.18
2018-08-13T21:40:33.601Z,22.22
2018-08-13T21:43:04.218Z,22.13
2018-08-13T21:45:33.831Z,22.10
2018-08-13T21:48:03.828Z,22.17
2018-08-13T21:50:39.137Z,22.13
2018-08-13T21:53:10.388Z,22.11
2018-08-13T21:55:39.606Z,22.08
2018-08-13T21:58:10.091Z,22.04
2018-08-13T22:00:45.031Z,22.03
2018-08-13T22:03:15.196Z,22.03
2018-08-13T22:05:44.356Z,22.00
2018-08-13T22:08:14.627Z,22.00
2018-08-13T22:10:44.961Z,21.99
2018-08-13T22:13:15.873Z,22.05
2018-08-13T22:15:45.693Z,22.05
2018-08-13T22:18:15.044Z,21.99
2018-08-13T22:20:46.344Z,21.94
2018-08-13T22:23:15.371Z,21.95
2018-08-13T22:25:46.405Z,21.93
2018-08-13T22:28:17.066Z,21.90
2018-08-13T22:30:48.073Z,21.92
2018-08-13T22:33:18.004Z,21.92
2018-08-13T22:35:46.897Z,21.89
2018-08-13T22:38:16.200Z,21.90
2018-08-13T22:40:45.018Z,21.90
2018-08-13T22:43:14.625Z,21.89
2018-08-13T22:45:45.119Z,21.91
2018-08-13T22:48:14.789Z,21.89
2018-08-13T22:50:43.580Z,21.92
2018-08-13T22:53:13.276Z,21.84
2018-08-13T22:55:43.243Z,21.85
2018-08-13T22:58:13.683Z,21.89
2018-08-13T23:00:43.897Z,21.82
2018-08-13T23:03:14.494Z,21.80
2018-08-13T23:05:45.630Z,21.79
2018-08-13T23:08:15.597Z,21.75
2018-08-13T23:10:45.202Z,21.76
2018-08-13T23:13:18.005Z,21.72
2018-08-13T23:15:49.007Z,21.72
2018-08-13T23:18:20.995Z,21.67
2018-08-13T23:20:50.968Z,21.63
2018-08-13T23:23:21.269Z,21.65
2018-08-13T23:25:51.120Z,21.60
2018-08-13T23:28:20.473Z,21.57
2018-08-13T23:30:49.378Z,21.57
2018-08-13T23:33:19.774Z,21.62
2018-08-13T23:35:49.735Z,21.57
2018-08-13T23:38:20.035Z,21.57
2018-08-13T23:40:50.581Z,21.54
2018-08-13T23:43:20.216Z,21.52
2018-08-13T23:45:49.593Z,21.49
2018-08-13T23:48:19.184Z,21.50
2018-08-13T23:50:49.882Z,21.49
2018-08-13T23:53:19.431Z,21.49
2018-08-13T23:55:48.859Z,21.46
2018-08-13T23:58:19.717Z,21.45
